createdAt,value
2018-12-13T00:00:35.194Z,5.80
2018-12-13T00:03:04.614Z,5.80
2018-12-13T00:05:35.997Z,5.70
2018-12-13T00:08:05.363Z,5.70
2018-12-13T00:10:34.668Z,5.70
2018-12-13T00:13:07.445Z,5.70
2018-12-13T00:15:36.815Z,5.60
2018-12-13T00:18:06.312Z,5.40
2018-12-13T00:20:35.762Z,5.30
2018-12-13T00:23:05.205Z,5.50
2018-12-13T00:25:34.535Z,5.40
2018-12-13T00:28:03.988Z,5.40
2018-12-13T00:30:33.269Z,5.40
2018-12-13T00:33:02.692Z,5.30
2018-12-13T00:35:31.993Z,5.30
2018-12-13T00:38:03.358Z,5.30
2018-12-13T00:40:32.691Z,5.20
2018-12-13T00:43:01.933Z,5.20
2018-12-13T00:45:31.339Z,5.30
2018-12-13T00:48:00.709Z,5.20
2018-12-13T00:50:29.957Z,5.20
2018-12-13T00:52:59.260Z,5.10
2018-12-13T00:55:28.604Z,5.10
2018-12-13T00:57:57.905Z,5.00
2018-12-13T01:00:27.178Z,5.10
2018-12-13T01:02:56.500Z,5.10
2018-12-13T01:05:25.903Z,5.20
2018-12-13T01:07:55.196Z,5.20
2018-12-13T01:10:25.510Z,5.20
2018-12-13T01:12:54.795Z,5.20
2018-12-13T01:15:26.123Z,5.20
2018-12-13T01:17:55.465Z,5.10
2018-12-13T01:20:24.828Z,5.20
2018-12-13T01:22:54.060Z,5.20
2018-12-13T01:25:23.851Z,5.30
2018-12-13T01:27:53.194Z,5.10
2018-12-13T01:30:22.500Z,5.10
2018-12-13T01:32:51.799Z,5.10
2018-12-13T01:35:21.078Z,5.10
2018-12-13T01:37:50.378Z,5.20
2018-12-13T01:40:19.674Z,5.00
2018-12-13T01:42:49.039Z,5.10
2018-12-13T01:45:19.548Z,5.10
2018-12-13T01:47:48.904Z,5.20
2018-12-13T01:50:18.190Z,5.20
2018-12-13T01:52:47.472Z,5.20
2018-12-13T01:55:16.706Z,5.10
2018-12-13T01:57:46.046Z,5.10
2018-12-13T02:00:15.351Z,4.90
2018-12-13T02:02:44.610Z,4.90
2018-12-13T02:05:13.931Z,4.90
2018-12-13T02:07:43.223Z,4.80
2018-12-13T02:10:13.630Z,4.90
2018-12-13T02:12:42.931Z,5.00
2018-12-13T02:15:12.268Z,4.80
2018-12-13T02:17:41.549Z,4.80
2018-12-13T02:20:11.128Z,4.70
2018-12-13T02:22:40.527Z,4.80
2018-12-13T02:25:09.976Z,4.70
2018-12-13T02:27:39.243Z,4.60
2018-12-13T02:30:08.845Z,4.50
2018-12-13T02:32:38.127Z,4.40
2018-12-13T02:35:07.702Z,4.50
2018-12-13T02:37:39.027Z,4.30
2018-12-13T02:40:08.583Z,4.40
2018-12-13T02:42:37.886Z,4.50
2018-12-13T02:45:07.459Z,4.50
2018-12-13T02:47:41.737Z,4.30
2018-12-13T02:50:11.179Z,4.30
2018-12-13T02:52:40.407Z,4.30
2018-12-13T02:55:09.722Z,4.20
2018-12-13T02:57:38.972Z,4.20
2018-12-13T03:00:08.488Z,4.20
2018-12-13T03:02:37.865Z,4.20
2018-12-13T03:05:07.418Z,4.10
2018-12-13T03:07:36.689Z,4.10
2018-12-13T03:10:06.634Z,4.10
2018-12-13T03:12:35.886Z,4.10
2018-12-13T03:15:05.616Z,4.10
2018-12-13T03:17:34.902Z,4.10
2018-12-13T03:20:05.277Z,4.00
2018-12-13T03:22:35.601Z,4.00
2018-12-13T03:25:05.445Z,3.90
2018-12-13T03:27:34.782Z,3.90
2018-12-13T03:30:04.369Z,3.90
2018-12-13T03:32:33.904Z,3.90
2018-12-13T03:35:03.297Z,3.90
2018-12-13T03:37:32.558Z,3.90
2018-12-13T03:40:01.858Z,3.90
2018-12-13T03:42:31.253Z,3.80
2018-12-13T03:45:00.545Z,3.80
2018-12-13T03:47:29.842Z,3.80
2018-12-13T03:49:59.185Z,3.80
2018-12-13T03:52:28.600Z,3.70
2018-12-13T03:54:57.871Z,3.60
2018-12-13T03:57:27.130Z,3.60
2018-12-13T03:59:56.414Z,3.60
2018-12-13T04:02:25.710Z,3.60
2018-12-13T04:04:54.963Z,3.60
2018-12-13T04:07:27.727Z,3.60
2018-12-13T04:09:56.564Z,3.50
2018-12-13T04:12:25.942Z,3.50
2018-12-13T04:14:55.206Z,3.50
2018-12-13T04:17:24.462Z,3.50
2018-12-13T04:19:53.815Z,3.60
2018-12-13T04:22:23.042Z,3.50
2018-12-13T04:24:52.302Z,3.50
2018-12-13T04:27:21.591Z,3.60
2018-12-13T04:29:51.353Z,3.50
2018-12-13T04:32:22.729Z,3.50
2018-12-13T04:34:52.126Z,3.50
2018-12-13T04:37:21.414Z,3.40
2018-12-13T04:39:50.781Z,3.50
2018-12-13T04:42:20.129Z,3.50
2018-12-13T04:44:49.415Z,3.60
2018-12-13T04:47:18.696Z,3.60
2018-12-13T04:49:48.029Z,3.60
2018-12-13T04:52:17.290Z,3.70
2018-12-13T04:54:46.535Z,3.70
2018-12-13T04:57:15.806Z,3.60
2018-12-13T04:59:45.195Z,3.60
2018-12-13T05:02:14.561Z,3.60
2018-12-13T05:04:43.774Z,3.50
2018-12-13T05:07:13.058Z,3.40
2018-12-13T05:09:42.285Z,3.40
2018-12-13T05:12:11.555Z,3.40
2018-12-13T05:14:40.782Z,3.40
2018-12-13T05:17:10.032Z,3.40
2018-12-13T05:19:39.392Z,3.40
2018-12-13T05:22:08.761Z,3.30
2018-12-13T05:24:38.063Z,3.40
2018-12-13T05:27:07.279Z,3.30
2018-12-13T05:29:37.717Z,3.40
2018-12-13T05:32:07.007Z,3.40
2018-12-13T05:34:36.319Z,3.40
2018-12-13T05:37:05.652Z,3.50
2018-12-13T05:39:34.990Z,3.50
2018-12-13T05:42:04.289Z,3.50
2018-12-13T05:44:33.679Z,3.40
2018-12-13T05:47:02.956Z,3.50
2018-12-13T05:49:32.279Z,3.50
2018-12-13T05:52:01.594Z,3.50
2018-12-13T05:54:30.956Z,3.50
2018-12-13T05:57:00.385Z,3.50
2018-12-13T05:59:29.716Z,3.50
2018-12-13T06:01:59.046Z,3.50
2018-12-13T06:04:28.351Z,3.50
2018-12-13T06:06:57.643Z,3.50
2018-12-13T06:09:26.923Z,3.50
2018-12-13T06:11:56.368Z,3.40
2018-12-13T06:14:25.662Z,3.40
2018-12-13T06:16:55.052Z,3.40
2018-12-13T06:19:26.878Z,3.40
2018-12-13T06:21:55.960Z,3.40
2018-12-13T06:24:26.350Z,3.40
2018-12-13T06:26:55.677Z,3.40
2018-12-13T06:29:24.982Z,3.40
2018-12-13T06:31:54.331Z,3.40
2018-12-13T06:34:24.088Z,3.40
2018-12-13T06:36:53.382Z,3.40
2018-12-13T06:39:22.981Z,3.40
2018-12-13T06:41:52.288Z,3.40
2018-12-13T06:44:21.582Z,3.40
2018-12-13T06:46:50.852Z,3.40
2018-12-13T06:49:20.159Z,3.40
2018-12-13T06:51:49.586Z,3.50
2018-12-13T06:54:19.945Z,3.50
2018-12-13T06:56:49.381Z,3.50
2018-12-13T06:59:18.690Z,3.50
2018-12-13T07:01:48.040Z,3.60
2018-12-13T07:04:17.319Z,3.60
2018-12-13T07:06:48.786Z,3.60
2018-12-13T07:09:18.068Z,3.70
2018-12-13T07:11:47.328Z,3.70
2018-12-13T07:14:16.701Z,3.70
2018-12-13T07:16:46.054Z,3.70
2018-12-13T07:19:15.395Z,3.70
2018-12-13T07:21:44.667Z,3.70
2018-12-13T07:24:16.061Z,3.80
2018-12-13T07:26:45.444Z,3.80
2018-12-13T07:29:14.686Z,3.90
2018-12-13T07:31:45.189Z,3.90
2018-12-13T07:34:14.441Z,3.80
2018-12-13T07:36:43.739Z,3.80
2018-12-13T07:39:14.083Z,3.80
2018-12-13T07:41:43.378Z,3.90
2018-12-13T07:44:12.773Z,4.00
2018-12-13T07:46:42.043Z,4.00
2018-12-13T07:49:11.371Z,4.00
2018-12-13T07:51:40.658Z,4.00
2018-12-13T07:54:10.022Z,4.10
2018-12-13T07:56:39.339Z,4.20
2018-12-13T07:59:13.572Z,4.10
2018-12-13T08:01:43.275Z,4.10
2018-12-13T08:04:12.506Z,4.20
2018-12-13T08:06:41.763Z,4.20
2018-12-13T08:09:11.143Z,4.20
2018-12-13T08:11:40.429Z,4.20
2018-12-13T08:14:09.717Z,4.20
2018-12-13T08:16:39.067Z,4.20
2018-12-13T08:19:08.337Z,4.30
2018-12-13T08:21:38.783Z,4.30
2018-12-13T08:24:08.041Z,4.40
2018-12-13T08:26:37.304Z,4.30
2018-12-13T08:29:06.575Z,4.30
2018-12-13T08:31:35.858Z,4.30
2018-12-13T08:34:05.208Z,4.30
2018-12-13T08:36:36.563Z,4.50
2018-12-13T08:39:09.969Z,4.30
2018-12-13T08:41:39.412Z,4.40
2018-12-13T08:44:09.755Z,4.40
2018-12-13T08:46:39.070Z,4.40
2018-12-13T08:49:08.428Z,4.40
2018-12-13T08:51:37.711Z,4.40
2018-12-13T08:54:06.957Z,4.40
2018-12-13T08:56:36.211Z,4.30
2018-12-13T08:59:05.593Z,4.30
2018-12-13T09:01:34.816Z,4.30
2018-12-13T09:04:04.160Z,4.40
2018-12-13T09:06:33.509Z,4.50
2018-12-13T09:09:03.150Z,4.50
2018-12-13T09:11:33.489Z,4.60
2018-12-13T09:14:03.070Z,4.60
2018-12-13T09:16:32.306Z,4.60
2018-12-13T09:19:01.552Z,4.70
2018-12-13T09:21:30.786Z,4.60
2018-12-13T09:24:00.060Z,4.80
2018-12-13T09:26:29.400Z,4.70
2018-12-13T09:28:58.711Z,4.70
2018-12-13T09:31:27.997Z,4.50
2018-12-13T09:33:57.297Z,4.60
2018-12-13T09:36:26.567Z,4.70
2018-12-13T09:38:55.847Z,4.70
2018-12-13T09:41:25.245Z,4.70
2018-12-13T09:43:54.491Z,4.70
2018-12-13T09:46:23.690Z,4.90
2018-12-13T09:48:52.924Z,4.90
2018-12-13T09:51:22.168Z,5.00
2018-12-13T09:53:51.490Z,4.90
2018-12-13T09:56:20.823Z,4.70
2018-12-13T09:58:50.076Z,4.90
2018-12-13T10:01:19.343Z,5.00
2018-12-13T10:03:48.543Z,5.00
2018-12-13T10:06:17.791Z,5.10
2018-12-13T10:08:47.021Z,5.00
2018-12-13T10:11:16.398Z,5.00
2018-12-13T10:13:52.249Z,5.10
2018-12-13T10:16:21.583Z,5.00
2018-12-13T10:18:50.919Z,5.00
2018-12-13T10:21:20.214Z,5.10
2018-12-13T10:23:49.667Z,5.20
2018-12-13T10:26:18.898Z,5.20
2018-12-13T10:28:48.127Z,5.10
2018-12-13T10:31:17.364Z,4.90
2018-12-13T10:33:46.588Z,5.10
2018-12-13T10:36:15.829Z,5.30
2018-12-13T10:38:45.072Z,5.20
2018-12-13T10:41:14.467Z,5.30
2018-12-13T10:43:43.749Z,5.30
2018-12-13T10:46:13.024Z,5.20
2018-12-13T10:48:42.324Z,5.30
2018-12-13T10:51:11.712Z,5.20
2018-12-13T10:53:41.120Z,5.20
2018-12-13T10:56:10.351Z,5.20
2018-12-13T10:58:38.750Z,5.30
2018-12-13T11:01:13.140Z,5.20
2018-12-13T11:03:42.414Z,5.10
2018-12-13T11:06:11.656Z,5.10
2018-12-13T11:08:40.938Z,5.10
2018-12-13T11:11:10.278Z,4.90
2018-12-13T11:13:39.495Z,5.30
2018-12-13T11:16:08.731Z,5.40
2018-12-13T11:18:38.066Z,5.40
2018-12-13T11:21:07.381Z,5.10
2018-12-13T11:23:36.705Z,5.40
2018-12-13T11:26:05.958Z,5.20
2018-12-13T11:30:31.339Z,5.30
2018-12-13T11:33:00.574Z,5.40
2018-12-13T11:35:29.816Z,5.50
2018-12-13T11:37:59.137Z,5.80
2018-12-13T11:40:28.395Z,5.70
2018-12-13T11:42:57.716Z,5.60
2018-12-13T11:45:27.084Z,5.80
2018-12-13T11:47:56.337Z,5.70
2018-12-13T11:50:25.809Z,5.60
2018-12-13T11:52:55.027Z,5.70
2018-12-13T11:55:34.144Z,5.70
2018-12-13T11:58:05.873Z,5.90
2018-12-13T12:00:35.158Z,5.70
2018-12-13T12:03:04.398Z,5.60
2018-12-13T12:05:33.702Z,5.70
2018-12-13T12:08:03.077Z,5.80
2018-12-13T12:10:32.339Z,6.00
2018-12-13T12:13:01.719Z,5.80
2018-12-13T12:15:30.946Z,5.90
2018-12-13T12:18:00.466Z,6.40
2018-12-13T12:20:29.695Z,6.10
2018-12-13T12:22:58.987Z,6.20
2018-12-13T12:25:28.190Z,6.30
2018-12-13T12:27:59.558Z,6.30
2018-12-13T12:30:29.016Z,6.00
2018-12-13T12:32:58.242Z,6.20
2018-12-13T12:35:27.450Z,5.90
2018-12-13T12:37:56.750Z,6.00
2018-12-13T12:40:25.983Z,6.10
2018-12-13T12:42:55.253Z,6.00
2018-12-13T12:45:24.596Z,5.80
2018-12-13T12:47:53.840Z,5.80
2018-12-13T12:50:25.222Z,5.70
2018-12-13T12:52:54.529Z,5.80
2018-12-13T12:55:24.831Z,5.80
2018-12-13T12:57:54.119Z,5.90
2018-12-13T13:00:23.424Z,5.80
2018-12-13T13:02:52.856Z,5.70
2018-12-13T13:05:23.237Z,5.60
2018-12-13T13:07:52.478Z,5.40
2018-12-13T13:10:21.756Z,5.50
2018-12-13T13:12:52.275Z,5.80
2018-12-13T13:15:21.591Z,5.70
2018-12-13T13:17:50.966Z,5.80
2018-12-13T13:20:20.215Z,5.90
2018-12-13T13:22:49.461Z,5.70
2018-12-13T13:25:18.737Z,5.70
2018-12-13T13:27:48.010Z,5.80
2018-12-13T13:30:17.338Z,5.90
2018-12-13T13:32:46.753Z,5.40
2018-12-13T13:35:16.257Z,5.50
2018-12-13T13:37:45.519Z,5.70
2018-12-13T13:40:14.750Z,5.40
2018-12-13T13:42:50.609Z,5.60
2018-12-13T13:45:20.076Z,5.70
2018-12-13T13:47:49.289Z,5.60
2018-12-13T13:50:18.569Z,5.50
2018-12-13T13:52:47.883Z,5.60
2018-12-13T13:55:19.303Z,5.70
2018-12-13T13:57:49.639Z,5.80
2018-12-13T14:00:18.850Z,5.80
2018-12-13T14:02:48.267Z,5.60
2018-12-13T14:05:17.705Z,5.70
2018-12-13T14:07:47.083Z,5.70
2018-12-13T14:10:16.418Z,5.50
2018-12-13T14:12:45.720Z,5.50
2018-12-13T14:15:15.012Z,5.50
2018-12-13T14:17:45.334Z,5.50
2018-12-13T14:20:14.740Z,5.60
2018-12-13T14:22:46.382Z,5.60
2018-12-13T14:25:15.710Z,5.60
2018-12-13T14:27:45.028Z,5.60
2018-12-13T14:30:14.493Z,5.40
2018-12-13T14:32:43.755Z,5.40
2018-12-13T14:35:19.079Z,5.30
2018-12-13T14:37:50.583Z,5.40
2018-12-13T14:40:19.926Z,5.50
2018-12-13T14:42:50.292Z,5.30
2018-12-13T14:45:19.590Z,5.50
2018-12-13T14:47:49.962Z,5.40
2018-12-13T14:50:19.418Z,5.30
2018-12-13T14:52:49.660Z,5.40
2018-12-13T14:55:19.144Z,5.20
2018-12-13T14:57:48.491Z,5.20
2018-12-13T15:00:17.889Z,5.30
2018-12-13T15:02:47.275Z,5.20
2018-12-13T15:05:16.926Z,5.20
2018-12-13T15:07:48.190Z,5.20
2018-12-13T15:10:17.495Z,5.20
2018-12-13T15:12:46.820Z,5.20
2018-12-13T15:15:18.233Z,5.20
2018-12-13T15:17:47.522Z,5.10
2018-12-13T15:20:16.751Z,5.10
2018-12-13T15:22:46.080Z,5.10
2018-12-13T15:25:15.478Z,5.00
2018-12-13T15:27:44.744Z,5.00
2018-12-13T15:30:15.235Z,5.20
2018-12-13T15:32:44.623Z,5.30
2018-12-13T15:35:13.882Z,5.30
2018-12-13T15:37:45.531Z,5.30
2018-12-13T15:40:17.979Z,5.10
2018-12-13T15:42:49.364Z,5.30
2018-12-13T15:45:19.749Z,5.00
2018-12-13T15:47:49.014Z,5.00
2018-12-13T15:50:18.289Z,5.10
2018-12-13T15:52:49.620Z,5.20
2018-12-13T15:55:20.892Z,5.30
2018-12-13T15:57:50.257Z,5.30
2018-12-13T16:00:19.568Z,5.20
2018-12-13T16:02:49.969Z,5.30
2018-12-13T16:05:19.567Z,5.20
2018-12-13T16:07:48.939Z,5.20
2018-12-13T16:10:18.227Z,5.30
2018-12-13T16:12:47.628Z,5.30
2018-12-13T16:15:16.914Z,5.20
2018-12-13T16:17:46.183Z,5.10
2018-12-13T16:20:15.607Z,5.20
2018-12-13T16:22:45.588Z,5.20
2018-12-13T16:25:14.825Z,5.20
2018-12-13T16:27:44.132Z,5.30
2018-12-13T16:30:13.919Z,5.20
2018-12-13T16:32:44.210Z,5.20
2018-12-13T16:35:13.506Z,5.20
2018-12-13T16:37:46.907Z,5.00
2018-12-13T16:40:16.186Z,5.20
2018-12-13T16:42:45.508Z,5.20
2018-12-13T16:45:14.785Z,5.30
2018-12-13T16:47:46.111Z,5.20
2018-12-13T16:50:15.418Z,5.40
2018-12-13T16:52:44.812Z,5.30
2018-12-13T16:55:14.190Z,5.20
2018-12-13T16:57:45.566Z,5.30
2018-12-13T17:00:16.076Z,5.40
2018-12-13T17:02:46.468Z,5.30
2018-12-13T17:05:15.713Z,5.40
2018-12-13T17:07:45.075Z,5.40
2018-12-13T17:10:16.949Z,5.30
2018-12-13T17:12:46.409Z,5.20
2018-12-13T17:15:15.828Z,5.30
2018-12-13T17:17:45.214Z,5.40
2018-12-13T17:20:14.713Z,5.40
2018-12-13T17:22:45.992Z,5.40
2018-12-13T17:25:15.403Z,5.50
2018-12-13T17:27:44.877Z,5.40
2018-12-13T17:30:14.211Z,5.20
2018-12-13T17:32:43.647Z,5.30
2018-12-13T17:35:18.827Z,5.40
2018-12-13T17:37:48.285Z,5.30
2018-12-13T17:40:22.981Z,5.40
2018-12-13T17:42:49.547Z,5.30
2018-12-13T17:45:19.049Z,5.30
2018-12-13T17:47:49.540Z,5.20
2018-12-13T17:50:19.027Z,5.30
2018-12-13T17:52:48.396Z,5.30
2018-12-13T17:55:17.867Z,5.20
2018-12-13T17:57:47.283Z,5.10
2018-12-13T18:00:16.748Z,5.20
2018-12-13T18:02:46.055Z,5.30
2018-12-13T18:05:15.490Z,5.10
2018-12-13T18:07:45.882Z,5.10
2018-12-13T18:10:15.855Z,5.20
2018-12-13T18:12:45.203Z,5.20
2018-12-13T18:15:14.654Z,5.20
2018-12-13T18:17:45.065Z,4.90
2018-12-13T18:20:14.339Z,5.10
2018-12-13T18:22:43.730Z,5.20
2018-12-13T18:25:21.643Z,5.10
2018-12-13T18:27:51.005Z,5.20
2018-12-13T18:30:20.391Z,5.30
2018-12-13T18:32:49.596Z,5.30
2018-12-13T18:35:18.989Z,5.30
2018-12-13T18:37:48.332Z,5.10
2018-12-13T18:40:17.666Z,5.00
2018-12-13T18:42:48.110Z,5.10
2018-12-13T18:45:19.399Z,5.10
2018-12-13T18:47:48.870Z,5.20
2018-12-13T18:50:18.226Z,5.10
2018-12-13T18:52:48.708Z,5.10
2018-12-13T18:55:18.005Z,5.20
2018-12-13T18:57:48.429Z,5.20
2018-12-13T19:00:17.710Z,4.90
2018-12-13T19:02:46.925Z,5.10
2018-12-13T19:05:16.189Z,5.20
2018-12-13T19:07:45.490Z,5.10
2018-12-13T19:10:18.121Z,5.10
2018-12-13T19:12:52.918Z,5.10
2018-12-13T19:15:34.811Z,5.00
2018-12-13T19:18:26.299Z,4.90
2018-12-13T19:21:01.844Z,4.70
2018-12-13T19:23:34.905Z,4.80
2018-12-13T19:26:11.177Z,5.00
2018-12-13T19:28:44.268Z,5.10
2018-12-13T19:31:19.714Z,5.10
2018-12-13T19:33:54.707Z,5.10
2018-12-13T19:36:29.642Z,5.10
2018-12-13T19:39:07.999Z,5.10
2018-12-13T19:41:42.699Z,5.00
2018-12-13T19:44:27.913Z,5.00
2018-12-13T19:47:21.966Z,5.10
2018-12-13T19:49:56.823Z,4.50
2018-12-13T19:52:29.230Z,4.90
2018-12-13T19:55:10.695Z,4.80
2018-12-13T19:57:45.427Z,5.00
2018-12-13T20:00:18.544Z,4.90
2018-12-13T20:02:51.835Z,4.90
2018-12-13T20:05:22.270Z,5.10
2018-12-13T20:07:55.577Z,5.00
2018-12-13T20:10:47.693Z,5.10
2018-12-13T20:13:20.882Z,5.00
2018-12-13T20:16:06.024Z,5.00
2018-12-13T20:18:39.683Z,5.00
2018-12-13T20:21:15.242Z,5.00
2018-12-13T20:23:50.564Z,4.80
2018-12-13T20:26:26.132Z,4.70
2018-12-13T20:32:01.958Z,5.00
2018-12-13T20:34:37.397Z,5.00
2018-12-13T20:37:13.112Z,4.90
2018-12-13T20:39:49.197Z,5.00
2018-12-13T20:42:34.599Z,4.80
2018-12-13T20:45:09.909Z,4.90
2018-12-13T20:47:42.571Z,5.00
2018-12-13T20:50:17.425Z,4.80
2018-12-13T20:52:50.560Z,4.80
2018-12-13T20:55:25.421Z,4.60
2018-12-13T20:58:00.777Z,4.80
2018-12-13T21:00:34.487Z,4.90
2018-12-13T21:03:07.059Z,4.90
2018-12-13T21:05:39.599Z,4.80
2018-12-13T21:08:14.360Z,4.90
2018-12-13T21:10:46.758Z,4.90
2018-12-13T21:13:27.023Z,4.50
2018-12-13T21:16:15.215Z,4.70
2018-12-13T21:18:51.423Z,4.70
2018-12-13T21:21:36.655Z,4.90
2018-12-13T21:24:11.373Z,4.90
2018-12-13T21:26:43.098Z,4.80
2018-12-13T21:29:14.359Z,4.80
2018-12-13T21:31:46.864Z,5.00
2018-12-13T21:34:21.715Z,5.00
2018-12-13T21:36:54.615Z,4.80
2018-12-13T21:39:27.771Z,4.90
2018-12-13T21:42:04.815Z,5.00
2018-12-13T21:44:40.108Z,5.00
2018-12-13T21:47:15.232Z,5.00
2018-12-13T21:49:50.527Z,4.90
2018-12-13T21:52:24.585Z,4.90
2018-12-13T21:54:57.298Z,4.60
2018-12-13T21:57:32.938Z,4.90
2018-12-13T22:00:09.642Z,4.90
2018-12-13T22:02:42.741Z,4.60
2018-12-13T22:05:18.056Z,4.80
2018-12-13T22:07:53.589Z,4.80
2018-12-13T22:10:28.957Z,5.00
2018-12-13T22:13:02.037Z,4.90
2018-12-13T22:15:34.555Z,5.00
2018-12-13T22:18:07.138Z,4.70
2018-12-13T22:20:43.679Z,4.80
2018-12-13T22:23:16.611Z,4.70
2018-12-13T22:25:56.202Z,4.80
2018-12-13T22:28:29.437Z,4.90
2018-12-13T22:31:02.283Z,5.00
2018-12-13T22:33:35.716Z,4.80
2018-12-13T22:36:08.364Z,5.00
2018-12-13T22:38:41.145Z,4.80
2018-12-13T22:41:13.590Z,4.80
2018-12-13T22:43:48.823Z,4.90
2018-12-13T22:46:24.428Z,4.90
2018-12-13T22:55:02.971Z,5.00
2018-12-13T22:57:38.283Z,4.80
2018-12-13T23:00:13.544Z,4.90
2018-12-13T23:02:44.648Z,4.60
2018-12-13T23:05:19.715Z,4.90
2018-12-13T23:07:58.011Z,4.70
2018-12-13T23:10:33.909Z,4.80
2018-12-13T23:13:18.759Z,4.80
2018-12-13T23:15:53.573Z,4.90
2018-12-13T23:21:33.946Z,4.90
2018-12-13T23:24:04.998Z,4.70
2018-12-13T23:26:40.251Z,4.90
2018-12-13T23:32:16.663Z,5.10
2018-12-13T23:35:00.651Z,5.00
2018-12-13T23:37:35.793Z,5.00
2018-12-13T23:40:08.487Z,4.80
2018-12-13T23:42:39.608Z,4.90
2018-12-13T23:45:12.905Z,5.00
2018-12-13T23:47:48.109Z,5.00
2018-12-13T23:50:31.309Z,4.80
2018-12-13T23:53:06.567Z,4.80
2018-12-13T23:55:41.847Z,5.00
2018-12-13T23:58:36.270Z,4.80
